Time,TemperatureF,DewpointF,PressureIn,WindDirection,WindDirectionDegrees,WindSpeedMPH,WindSpeedGustMPH,Humidity,HourlyPrecipIn,Conditions,Clouds,dailyrainin,SoftwareType,DateUTC
2013-02-22 00:00:00,22.1,15.7,30.55,NW,316,0.0,0.0,76,0.00,,SKC,0.00,VWS V13.01,2013-02-22 05:00:00,
2013-02-22 00:05:00,22.1,15.7,30.55,NW,316,0.0,0.0,76,0.00,,SKC,0.00,VWS V13.01,2013-02-22 05:05:00,
2013-02-22 00:10:00,22.1,15.7,30.55,NW,316,0.0,0.0,76,0.00,,SKC,0.00,VWS V13.01,2013-02-22 05:10:00,
2013-02-22 00:15:00,22.1,15.7,30.55,NW,316,0.0,0.0,76,0.00,,SKC,0.00,VWS V13.01,2013-02-22 05:15:00,
2013-02-22 00:20:00,22.1,15.7,30.54,NW,316,0.0,0.0,76,0.00,,SKC,0.00,VWS V13.01,2013-02-22 05:20:00,
2013-02-22 00:25:00,22.2,15.8,30.55,NW,316,0.0,0.0,76,0.00,,SKC,0.00,VWS V13.01,2013-02-22 05:25:00,
2013-02-22 00:30:00,22.2,15.8,30.55,NW,316,0.0,0.0,76,0.00,,SKC,0.00,VWS V13.01,2013-02-22 05:30:00,
2013-02-22 00:35:00,22.2,15.8,30.54,NW,316,0.0,0.0,76,0.00,,SKC,0.00,VWS V13.01,2013-02-22 05:35:00,
2013-02-22 00:40:00,22.2,15.8,30.54,NW,316,0.0,0.0,76,0.00,,SKC,0.00,VWS V13.01,2013-02-22 05:40:00,
2013-02-22 00:45:00,22.2,15.8,30.54,NW,316,0.0,0.0,76,0.00,,SKC,0.00,VWS V13.01,2013-02-22 05:45:00,
2013-02-22 00:50:00,22.2,15.8,30.53,NW,316,0.0,0.0,76,0.00,,SKC,0.00,VWS V13.01,2013-02-22 05:50:00,
2013-02-22 00:55:00,22.2,15.8,30.53,NW,316,0.0,0.0,76,0.00,,SKC,0.00,VWS V13.01,2013-02-22 05:55:00,
2013-02-22 01:00:00,22.2,15.8,30.53,NW,316,0.0,0.0,76,0.00,,SKC,0.00,VWS V13.01,2013-02-22 06:00:00,
2013-02-22 01:05:00,22.2,15.8,30.53,NW,316,0.0,0.0,76,0.00,,SKC,0.00,VWS V13.01,2013-02-22 06:05:00,
2013-02-22 01:10:00,22.2,15.8,30.53,NW,316,0.0,0.0,76,0.00,,SKC,0.00,VWS V13.01,2013-02-22 06:10:00,
2013-02-22 01:16:00,22.2,15.8,30.53,NW,316,0.0,0.0,76,0.00,,SKC,0.00,VWS V13.01,2013-02-22 06:16:00,
2013-02-22 01:20:00,22.1,15.7,30.53,NW,316,0.0,0.0,76,0.00,,SKC,0.00,VWS V13.01,2013-02-22 06:20:00,
2013-02-22 01:26:00,22.1,15.7,30.53,NW,316,0.0,0.0,76,0.00,,SKC,0.00,VWS V13.01,2013-02-22 06:26:00,
2013-02-22 01:30:00,21.9,15.5,30.52,NW,316,0.0,0.0,76,0.00,,SKC,0.00,VWS V13.01,2013-02-22 06:30:00,
2013-02-22 01:35:00,21.9,15.5,30.52,NW,316,0.0,0.0,76,0.00,,SKC,0.00,VWS V13.01,2013-02-22 06:35:00,
2013-02-22 01:40:00,21.7,15.3,30.52,NW,316,0.0,0.0,76,0.00,,SKC,0.00,VWS V13.01,2013-02-22 06:40:00,
2013-02-22 01:45:00,21.7,15.3,30.53,NW,316,0.0,0.0,76,0.00,,SKC,0.00,VWS V13.01,2013-02-22 06:45:00,
2013-02-22 01:50:00,21.5,15.1,30.53,NW,316,0.0,0.0,76,0.00,,SKC,0.00,VWS V13.01,2013-02-22 06:50:00,
2013-02-22 01:55:00,21.3,14.9,30.52,NW,316,0.0,0.0,76,0.00,,SKC,0.00,VWS V13.01,2013-02-22 06:55:00,
2013-02-22 02:01:00,21.3,14.9,30.52,NW,316,0.0,0.0,76,0.00,,SKC,0.00,VWS V13.01,2013-02-22 07:01:00,
2013-02-22 02:06:00,21.3,14.9,30.52,NW,316,0.0,0.0,76,0.00,,SKC,0.00,VWS V13.01,2013-02-22 07:06:00,
2013-02-22 02:11:00,21.3,14.9,30.52,NW,316,0.0,0.0,76,0.00,,SKC,0.00,VWS V13.01,2013-02-22 07:11:00,
2013-02-22 02:16:00,21.3,14.9,30.52,NW,316,0.0,0.0,76,0.00,,SKC,0.00,VWS V13.01,2013-02-22 07:16:00,
2013-02-22 02:21:00,21.3,14.9,30.52,NW,316,0.0,0.0,76,0.00,,SKC,0.00,VWS V13.01,2013-02-22 07:21:00,
2013-02-22 02:26:00,21.3,14.9,30.52,NW,316,0.0,0.0,76,0.00,,SKC,0.00,VWS V13.01,2013-02-22 07:26:00,
2013-02-22 02:31:00,21.3,14.9,30.53,NW,316,0.0,0.0,76,0.00,,SKC,0.00,VWS V13.01,2013-02-22 07:31:00,
2013-02-22 02:36:00,21.5,15.4,30.52,NW,316,0.0,0.0,77,0.00,,SKC,0.00,VWS V13.01,2013-02-22 07:36:00,
2013-02-22 02:41:00,21.5,15.4,30.52,NW,316,0.0,0.0,77,0.00,,SKC,0.00,VWS V13.01,2013-02-22 07:41:00,
2013-02-22 02:46:00,21.7,15.6,30.52,NW,316,0.0,0.0,77,0.00,,SKC,0.00,VWS V13.01,2013-02-22 07:46:00,
2013-02-22 02:51:00,21.9,15.8,30.52,NW,316,0.0,0.0,77,0.00,,SKC,0.00,VWS V13.01,2013-02-22 07:51:00,
2013-02-22 02:56:00,21.9,15.8,30.52,NW,316,0.0,0.0,77,0.00,,SKC,0.00,VWS V13.01,2013-02-22 07:56:00,
2013-02-22 03:01:00,21.9,15.8,30.52,NW,316,0.0,0.0,77,0.00,,SKC,0.00,VWS V13.01,2013-02-22 08:01:00,
2013-02-22 03:06:00,21.9,15.8,30.52,NW,316,0.0,0.0,77,0.00,,SKC,0.00,VWS V13.01,2013-02-22 08:06:00,
2013-02-22 03:11:00,22.1,16.0,30.52,NW,316,0.0,0.0,77,0.00,,SKC,0.00,VWS V13.01,2013-02-22 08:11:00,
2013-02-22 03:16:00,22.1,16.0,30.51,NW,316,0.0,0.0,77,0.00,,SKC,0.00,VWS V13.01,2013-02-22 08:16:00,
2013-02-22 03:21:00,22.2,16.1,30.51,NW,316,0.0,0.0,77,0.00,,SKC,0.00,VWS V13.01,2013-02-22 08:21:00,
2013-02-22 03:26:00,22.2,16.1,30.51,NW,316,0.0,0.0,77,0.00,,SKC,0.00,VWS V13.01,2013-02-22 08:26:00,
2013-02-22 03:31:00,22.1,16.0,30.51,NW,316,0.0,0.0,77,0.00,,SKC,0.00,VWS V13.01,2013-02-22 08:31:00,
2013-02-22 03:36:00,22.1,16.0,30.51,NW,316,0.0,0.0,77,0.00,,SKC,0.00,VWS V13.01,2013-02-22 08:36:00,
2013-02-22 03:41:00,22.2,16.1,30.51,NW,316,0.0,0.0,77,0.00,,SKC,0.00,VWS V13.01,2013-02-22 08:41:00,
2013-02-22 03:46:00,22.2,16.1,30.51,NW,316,0.0,0.0,77,0.00,,SKC,0.00,VWS V13.01,2013-02-22 08:46:00,
2013-02-22 03:51:00,22.2,16.1,30.51,NW,316,0.0,0.0,77,0.00,,SKC,0.00,VWS V13.01,2013-02-22 08:51:00,
2013-02-22 03:56:00,22.2,16.1,30.50,NW,316,0.0,0.0,77,0.00,,SKC,0.00,VWS V13.01,2013-02-22 08:56:00,
2013-02-22 04:01:00,22.2,16.1,30.50,NW,316,0.0,0.0,77,0.00,,SKC,0.00,VWS V13.01,2013-02-22 09:01:00,
2013-02-22 04:06:00,22.2,16.1,30.50,NW,316,0.0,0.0,77,0.00,,SKC,0.00,VWS V13.01,2013-02-22 09:06:00,
2013-02-22 04:11:00,21.7,15.6,30.50,NW,316,0.0,0.0,77,0.00,,SKC,0.00,VWS V13.01,2013-02-22 09:11:00,
2013-02-22 04:16:00,21.3,14.9,30.50,NW,316,0.0,0.0,76,0.00,,SKC,0.00,VWS V13.01,2013-02-22 09:16:00,
2013-02-22 04:21:00,21.2,14.8,30.50,NW,316,0.0,0.0,76,0.00,,SKC,0.00,VWS V13.01,2013-02-22 09:21:00,
2013-02-22 04:26:00,21.0,14.6,30.50,NW,316,0.0,0.0,76,0.00,,SKC,0.00,VWS V13.01,2013-02-22 09:26:00,
2013-02-22 04:31:00,20.6,14.2,30.50,NW,316,0.0,0.0,76,0.00,,SKC,0.00,VWS V13.01,2013-02-22 09:31:00,
2013-02-22 04:36:00,20.4,14.1,30.50,NW,316,0.0,0.0,76,0.00,,SKC,0.00,VWS V13.01,2013-02-22 09:36:00,
2013-02-22 04:41:00,20.3,14.3,30.51,NW,316,0.0,0.0,77,0.00,,SKC,0.00,VWS V13.01,2013-02-22 09:41:00,
2013-02-22 04:46:00,19.9,13.9,30.51,NW,316,0.0,0.0,77,0.00,,SKC,0.00,VWS V13.01,2013-02-22 09:46:00,
2013-02-22 04:51:00,19.7,13.7,30.50,SSE,158,0.0,0.0,77,0.00,,SKC,0.00,VWS V13.01,2013-02-22 09:51:00,
2013-02-22 04:56:00,19.5,13.5,30.50,SSE,158,0.0,0.0,77,0.00,,SKC,0.00,VWS V13.01,2013-02-22 09:56:00,
2013-02-22 05:01:00,19.5,13.5,30.51,SSE,158,0.0,0.0,77,0.00,,SKC,0.00,VWS V13.01,2013-02-22 10:01:00,
2013-02-22 05:06:00,19.4,13.4,30.51,SSE,158,0.0,0.0,77,0.00,,SKC,0.00,VWS V13.01,2013-02-22 10:06:00,
2013-02-22 05:11:00,19.2,13.2,30.51,SSE,158,0.0,0.0,77,0.00,,SKC,0.00,VWS V13.01,2013-02-22 10:11:00,
2013-02-22 05:16:00,19.2,13.2,30.52,SSE,158,0.0,0.0,77,0.00,,SKC,0.00,VWS V13.01,2013-02-22 10:16:00,
2013-02-22 05:21:00,19.0,13.0,30.53,SSE,158,0.0,0.0,77,0.00,,SKC,0.00,VWS V13.01,2013-02-22 10:21:00,
2013-02-22 05:26:00,18.8,12.8,30.53,SSE,158,0.0,0.0,77,0.00,,SKC,0.00,VWS V13.01,2013-02-22 10:26:00,
2013-02-22 05:31:00,18.8,13.1,30.53,SSE,158,0.0,0.0,78,0.00,,SKC,0.00,VWS V13.01,2013-02-22 10:31:00,
2013-02-22 05:36:00,18.6,12.9,30.53,SSE,158,0.0,0.0,78,0.00,,SKC,0.00,VWS V13.01,2013-02-22 10:36:00,
2013-02-22 05:41:00,18.6,12.9,30.53,SSE,158,0.0,0.0,78,0.00,,SKC,0.00,VWS V13.01,2013-02-22 10:41:00,
2013-02-22 05:46:00,18.5,12.8,30.53,SSE,158,0.0,0.0,78,0.00,,SKC,0.00,VWS V13.01,2013-02-22 10:46:00,
2013-02-22 05:51:00,18.3,12.6,30.54,SSE,158,0.0,0.0,78,0.00,,SKC,0.00,VWS V13.01,2013-02-22 10:51:00,
2013-02-22 05:56:00,18.1,12.4,30.54,SSE,158,0.0,0.0,78,0.00,,SKC,0.00,VWS V13.01,2013-02-22 10:56:00,
2013-02-22 06:01:00,17.9,12.2,30.54,SSE,158,0.0,0.0,78,0.00,,SKC,0.00,VWS V13.01,2013-02-22 11:01:00,
2013-02-22 06:06:00,17.9,12.2,30.54,SSE,158,0.0,0.0,78,0.00,,SKC,0.00,VWS V13.01,2013-02-22 11:06:00,
2013-02-22 06:11:00,17.2,11.2,30.54,SSE,158,0.0,0.0,77,0.00,,SKC,0.00,VWS V13.01,2013-02-22 11:11:00,
2013-02-22 06:16:00,16.8,10.9,30.54,SSE,158,0.0,0.0,77,0.00,,SKC,0.00,VWS V13.01,2013-02-22 11:16:00,
2013-02-22 06:21:00,16.3,10.4,30.55,SSE,158,0.0,0.0,77,0.00,,SKC,0.00,VWS V13.01,2013-02-22 11:21:00,
2013-02-22 06:26:00,16.1,10.2,30.56,SSE,158,0.0,0.0,77,0.00,,SKC,0.00,VWS V13.01,2013-02-22 11:26:00,
2013-02-22 06:31:00,15.9,10.3,30.56,SSE,158,0.0,0.0,78,0.00,,SKC,0.00,VWS V13.01,2013-02-22 11:31:00,
2013-02-22 06:36:00,15.6,10.0,30.57,SSE,158,0.0,0.0,78,0.00,,SKC,0.00,VWS V13.01,2013-02-22 11:36:00,
2013-02-22 06:41:00,15.6,10.0,30.56,SSE,158,0.0,0.0,78,0.00,,SKC,0.00,VWS V13.01,2013-02-22 11:41:00,
2013-02-22 06:46:00,15.4,9.8,30.57,SSE,158,0.0,0.0,78,0.00,,SKC,0.00,VWS V13.01,2013-02-22 11:46:00,
2013-02-22 06:51:00,15.2,9.6,30.57,SSE,158,0.0,0.0,78,0.00,,SKC,0.00,VWS V13.01,2013-02-22 11:51:00,
2013-02-22 06:56:00,15.0,9.4,30.57,SSE,158,0.0,0.0,78,0.00,,SKC,0.00,VWS V13.01,2013-02-22 11:56:00,
2013-02-22 07:01:00,14.7,8.8,30.58,SSE,158,0.0,0.0,77,0.00,,SKC,0.00,VWS V13.01,2013-02-22 12:01:00,
2013-02-22 07:06:00,14.5,8.6,30.58,SSE,158,0.0,0.0,77,0.00,,SKC,0.00,VWS V13.01,2013-02-22 12:06:00,
2013-02-22 07:11:00,14.3,8.7,30.58,SSE,158,0.0,0.0,78,0.00,,SKC,0.00,VWS V13.01,2013-02-22 12:11:00,
2013-02-22 07:16:00,14.5,8.9,30.58,SSE,158,0.0,0.0,78,0.00,,SKC,0.00,VWS V13.01,2013-02-22 12:16:00,
2013-02-22 07:21:00,14.7,9.1,30.58,SSE,158,0.0,0.0,78,0.00,,SKC,0.00,VWS V13.01,2013-02-22 12:21:00,
2013-02-22 07:26:00,14.9,9.3,30.58,SSE,158,0.0,0.0,78,0.00,,SKC,0.00,VWS V13.01,2013-02-22 12:26:00,
2013-02-22 07:31:00,15.2,9.6,30.58,SSE,158,0.0,0.0,78,0.00,,SKC,0.00,VWS V13.01,2013-02-22 12:31:00,
2013-02-22 07:36:00,15.4,9.8,30.59,SSE,158,0.0,0.0,78,0.00,,SKC,0.00,VWS V13.01,2013-02-22 12:36:00,
2013-02-22 07:41:00,15.6,10.3,30.58,SSE,158,0.0,0.0,79,0.00,,SKC,0.00,VWS V13.01,2013-02-22 12:41:00,
2013-02-22 07:46:00,16.1,10.8,30.58,SSE,158,0.0,0.0,79,0.00,,SKC,0.00,VWS V13.01,2013-02-22 12:46:00,
2013-02-22 07:51:00,16.5,11.1,30.59,SSE,158,0.0,0.0,79,0.00,,SKC,0.00,VWS V13.01,2013-02-22 12:51:00,
2013-02-22 07:56:00,16.8,11.4,30.59,SSE,158,0.0,0.0,79,0.00,,SKC,0.00,VWS V13.01,2013-02-22 12:56:00,
2013-02-22 08:01:00,17.4,12.0,30.58,SSE,158,0.0,0.0,79,0.00,,SKC,0.00,VWS V13.01,2013-02-22 13:01:00,
2013-02-22 08:06:00,17.6,12.2,30.59,SSE,158,0.0,0.0,79,0.00,,SKC,0.00,VWS V13.01,2013-02-22 13:06:00,
2013-02-22 08:11:00,17.9,12.5,30.59,SSE,158,0.0,0.0,79,0.00,,SKC,0.00,VWS V13.01,2013-02-22 13:11:00,
2013-02-22 08:16:00,18.5,13.1,30.58,SSE,158,0.0,0.0,79,0.00,,SKC,0.00,VWS V13.01,2013-02-22 13:16:00,
2013-02-22 08:21:00,19.2,13.8,30.58,SSE,158,0.0,0.0,79,0.00,,SKC,0.00,VWS V13.01,2013-02-22 13:21:00,
2013-02-22 08:26:00,19.5,14.1,30.58,SSE,158,0.0,0.0,79,0.00,,SKC,0.00,VWS V13.01,2013-02-22 13:26:00,
2013-02-22 08:31:00,20.4,14.9,30.59,SSE,158,0.0,0.0,79,0.00,,SKC,0.00,VWS V13.01,2013-02-22 13:31:00,
2013-02-22 08:36:00,21.0,15.5,30.58,SSE,158,0.0,0.0,79,0.00,,SKC,0.00,VWS V13.01,2013-02-22 13:36:00,
2013-02-22 08:41:00,21.5,16.0,30.58,SSE,158,0.0,0.0,79,0.00,,SKC,0.00,VWS V13.01,2013-02-22 13:41:00,
2013-02-22 08:46:00,22.1,16.9,30.58,SSE,158,0.0,0.0,80,0.00,,SKC,0.00,VWS V13.01,2013-02-22 13:46:00,
2013-02-22 08:51:00,22.6,17.1,30.58,SSE,158,0.0,0.0,79,0.00,,SKC,0.00,VWS V13.01,2013-02-22 13:51:00,
2013-02-22 08:56:00,23.0,17.5,30.59,SSE,158,0.0,0.0,79,0.00,,SKC,0.00,VWS V13.01,2013-02-22 13:56:00,
2013-02-22 09:01:00,23.5,18.0,30.58,SSE,158,0.0,0.0,79,0.00,,SKC,0.00,VWS V13.01,2013-02-22 14:01:00,
2013-02-22 09:06:00,24.0,18.5,30.58,SSE,158,0.0,0.0,79,0.00,,SKC,0.00,VWS V13.01,2013-02-22 14:06:00,
2013-02-22 09:11:00,24.4,18.8,30.58,SSE,158,0.0,0.0,79,0.00,,SKC,0.00,VWS V13.01,2013-02-22 14:11:00,
2013-02-22 09:16:00,25.1,19.2,30.58,WSW,248,0.0,1.1,78,0.00,,SKC,0.00,VWS V13.01,2013-02-22 14:16:00,
2013-02-22 09:21:00,25.5,19.6,30.59,WSW,248,0.0,0.0,78,0.00,,SKC,0.00,VWS V13.01,2013-02-22 14:21:00,
2013-02-22 09:26:00,26.2,20.3,30.58,NW,316,5.5,5.5,78,0.00,,SKC,0.00,VWS V13.01,2013-02-22 14:26:00,
2013-02-22 09:31:00,26.6,20.1,30.58,NW,316,3.1,3.1,76,0.00,,SKC,0.00,VWS V13.01,2013-02-22 14:31:00,
2013-02-22 09:36:00,26.9,20.4,30.58,North,1,4.9,4.9,76,0.00,,SKC,0.00,VWS V13.01,2013-02-22 14:36:00,
2013-02-22 09:41:00,27.1,20.2,30.58,WNW,294,4.2,4.2,75,0.00,,SKC,0.00,VWS V13.01,2013-02-22 14:41:00,
2013-02-22 09:46:00,27.6,20.7,30.58,WNW,294,0.0,0.0,75,0.00,,SKC,0.00,VWS V13.01,2013-02-22 14:46:00,
2013-02-22 09:51:00,28.0,21.1,30.58,WNW,294,0.0,0.0,75,0.00,,SKC,0.00,VWS V13.01,2013-02-22 14:51:00,
2013-02-22 09:56:00,28.4,21.5,30.58,WSW,248,0.0,0.0,75,0.00,,SKC,0.00,VWS V13.01,2013-02-22 14:56:00,
2013-02-22 10:01:00,29.4,22.1,30.58,NW,316,0.0,0.0,74,0.00,,SKC,0.00,VWS V13.01,2013-02-22 15:01:00,
2013-02-22 10:06:00,30.3,23.0,30.57,NW,316,2.4,2.4,74,0.00,,SKC,0.00,VWS V13.01,2013-02-22 15:06:00,
2013-02-22 10:11:00,30.7,23.1,30.56,NW,316,0.0,0.0,73,0.00,,SKC,0.00,VWS V13.01,2013-02-22 15:11:00,
2013-02-22 10:16:00,31.1,23.1,30.56,NW,316,0.0,0.0,72,0.00,,SKC,0.00,VWS V13.01,2013-02-22 15:16:00,
2013-02-22 10:21:00,31.2,22.9,30.56,NNW,338,0.0,0.0,71,0.00,,SKC,0.00,VWS V13.01,2013-02-22 15:21:00,
2013-02-22 10:26:00,31.2,22.9,30.56,NNW,338,0.0,0.0,71,0.00,,SKC,0.00,VWS V13.01,2013-02-22 15:26:00,
2013-02-22 10:31:00,31.2,22.9,30.56,NNW,338,0.0,0.0,71,0.00,,SKC,0.00,VWS V13.01,2013-02-22 15:31:00,
2013-02-22 10:36:00,31.8,23.5,30.55,NNW,338,0.0,0.0,71,0.00,,SKC,0.00,VWS V13.01,2013-02-22 15:36:00,
2013-02-22 10:41:00,32.0,23.7,30.55,NNW,338,3.5,3.5,71,0.00,,SKC,0.00,VWS V13.01,2013-02-22 15:41:00,
2013-02-22 10:46:00,32.1,23.4,30.55,North,1,2.2,2.2,70,0.00,,SKC,0.00,VWS V13.01,2013-02-22 15:46:00,
2013-02-22 10:51:00,32.7,24.0,30.55,NW,316,2.2,2.2,70,0.00,,SKC,0.00,VWS V13.01,2013-02-22 15:51:00,
2013-02-22 10:56:00,32.9,24.2,30.55,WNW,294,1.5,1.5,70,0.00,,SKC,0.00,VWS V13.01,2013-02-22 15:56:00,
2013-02-22 11:01:00,33.4,24.7,30.55,WNW,294,1.3,1.3,70,0.00,,SKC,0.00,VWS V13.01,2013-02-22 16:01:00,
2013-02-22 11:06:00,33.4,24.7,30.54,WNW,294,0.0,0.0,70,0.00,,SKC,0.00,VWS V13.01,2013-02-22 16:06:00,
2013-02-22 11:11:00,33.4,24.3,30.54,NNW,338,2.9,2.9,69,0.00,,SKC,0.00,VWS V13.01,2013-02-22 16:11:00,
2013-02-22 11:16:00,32.9,23.9,30.54,NW,316,0.0,0.0,69,0.00,,SKC,0.00,VWS V13.01,2013-02-22 16:16:00,
2013-02-22 11:21:00,33.0,24.0,30.54,WNW,294,1.3,1.3,69,0.00,,SKC,0.00,VWS V13.01,2013-02-22 16:21:00,
2013-02-22 11:27:00,33.2,24.1,30.54,NW,316,0.0,0.0,69,0.00,,SKC,0.00,VWS V13.01,2013-02-22 16:27:00,
2013-02-22 11:31:00,33.4,24.0,30.54,NW,316,3.1,3.1,68,0.00,,SKC,0.00,VWS V13.01,2013-02-22 16:31:00,
2013-02-22 11:37:00,33.8,24.4,30.55,NW,316,6.0,6.0,68,0.00,,SKC,0.00,VWS V13.01,2013-02-22 16:37:00,
2013-02-22 11:42:00,34.3,24.9,30.54,NW,316,3.8,3.8,68,0.00,,SKC,0.00,VWS V13.01,2013-02-22 16:42:00,
2013-02-22 11:47:00,34.5,25.0,30.54,NW,316,0.0,0.0,68,0.00,,SKC,0.00,VWS V13.01,2013-02-22 16:47:00,
2013-02-22 11:52:00,34.8,25.0,30.54,North,1,1.5,1.5,67,0.00,,SKC,0.00,VWS V13.01,2013-02-22 16:52:00,
2013-02-22 11:57:00,34.8,24.6,30.54,NW,316,5.1,5.1,66,0.00,,SKC,0.00,VWS V13.01,2013-02-22 16:57:00,
2013-02-22 12:02:00,35.0,24.4,30.54,NNW,338,0.6,0.6,65,0.00,,SKC,0.00,VWS V13.01,2013-02-22 17:02:00,
2013-02-22 12:07:00,35.4,25.2,30.54,NW,316,3.1,3.1,66,0.00,,SKC,0.00,VWS V13.01,2013-02-22 17:07:00,
2013-02-22 12:12:00,35.4,24.8,30.54,WNW,294,2.4,2.4,65,0.00,,SKC,0.00,VWS V13.01,2013-02-22 17:12:00,
2013-02-22 12:17:00,35.4,24.8,30.53,NW,316,0.0,0.0,65,0.00,,SKC,0.00,VWS V13.01,2013-02-22 17:17:00,
2013-02-22 12:22:00,35.4,24.8,30.53,WNW,294,0.0,0.0,65,0.00,,SKC,0.00,VWS V13.01,2013-02-22 17:22:00,
2013-02-22 12:27:00,35.4,24.8,30.53,ENE,68,0.6,0.6,65,0.00,,SKC,0.00,VWS V13.01,2013-02-22 17:27:00,
2013-02-22 12:32:00,35.4,24.5,30.52,NW,316,4.6,4.6,64,0.00,,SKC,0.00,VWS V13.01,2013-02-22 17:32:00,
2013-02-22 12:37:00,35.7,24.7,30.52,NW,316,0.0,0.0,64,0.00,,SKC,0.00,VWS V13.01,2013-02-22 17:37:00,
2013-02-22 12:42:00,35.9,24.9,30.52,NNE,24,0.0,0.0,64,0.00,,SKC,0.00,VWS V13.01,2013-02-22 17:42:00,
2013-02-22 12:47:00,36.1,25.1,30.51,ENE,68,0.0,0.0,64,0.00,,SKC,0.00,VWS V13.01,2013-02-22 17:47:00,
2013-02-22 12:52:00,36.3,24.5,30.51,NE,46,1.7,1.7,62,0.00,,SKC,0.00,VWS V13.01,2013-02-22 17:52:00,
2013-02-22 12:57:00,36.3,24.5,30.51,NNE,24,1.3,1.3,62,0.00,,SKC,0.00,VWS V13.01,2013-02-22 17:57:00,
2013-02-22 13:02:00,35.7,24.0,30.50,ENE,68,0.0,0.0,62,0.00,,SKC,0.00,VWS V13.01,2013-02-22 18:02:00,
2013-02-22 13:07:00,34.8,23.5,30.50,NNW,338,2.0,2.0,63,0.00,,SKC,0.00,VWS V13.01,2013-02-22 18:07:00,
2013-02-22 13:12:00,34.3,23.0,30.50,NNW,338,0.0,0.0,63,0.00,,SKC,0.00,VWS V13.01,2013-02-22 18:12:00,
2013-02-22 13:17:00,34.3,23.0,30.50,NE,46,0.6,0.6,63,0.00,,SKC,0.00,VWS V13.01,2013-02-22 18:17:00,
2013-02-22 13:22:00,34.3,23.0,30.48,NW,316,4.2,4.2,63,0.00,,SKC,0.00,VWS V13.01,2013-02-22 18:22:00,
2013-02-22 13:27:00,34.3,23.0,30.49,North,1,2.4,2.4,63,0.00,,SKC,0.00,VWS V13.01,2013-02-22 18:27:00,
2013-02-22 13:32:00,34.7,23.8,30.48,NE,46,0.0,0.0,64,0.00,,SKC,0.00,VWS V13.01,2013-02-22 18:32:00,
2013-02-22 13:37:00,34.8,23.5,30.48,NW,316,5.8,5.8,63,0.00,,SKC,0.00,VWS V13.01,2013-02-22 18:37:00,
2013-02-22 13:42:00,34.7,23.4,30.48,NNE,24,1.5,1.5,63,0.00,,SKC,0.00,VWS V13.01,2013-02-22 18:42:00,
2013-02-22 13:47:00,34.8,23.5,30.48,North,1,1.7,1.7,63,0.00,,SKC,0.00,VWS V13.01,2013-02-22 18:47:00,
2013-02-22 13:52:00,35.4,24.1,30.48,NNE,24,0.0,0.0,63,0.00,,SKC,0.00,VWS V13.01,2013-02-22 18:52:00,
2013-02-22 13:57:00,35.4,23.3,30.48,North,1,0.8,0.8,61,0.00,,SKC,0.00,VWS V13.01,2013-02-22 18:57:00,
2013-02-22 14:02:00,35.4,23.7,30.48,North,1,3.5,3.5,62,0.00,,SKC,0.00,VWS V13.01,2013-02-22 19:02:00,
2013-02-22 14:07:00,35.4,23.3,30.48,North,1,0.8,0.8,61,0.00,,SKC,0.00,VWS V13.01,2013-02-22 19:07:00,
2013-02-22 14:12:00,35.4,23.7,30.48,ENE,68,0.0,0.0,62,0.00,,SKC,0.00,VWS V13.01,2013-02-22 19:12:00,
2013-02-22 14:18:00,35.4,23.7,30.48,NNW,338,2.9,2.9,62,0.00,,SKC,0.00,VWS V13.01,2013-02-22 19:18:00,
2013-02-22 14:22:00,35.2,23.1,30.48,NNW,338,0.0,0.0,61,0.00,,SKC,0.00,VWS V13.01,2013-02-22 19:22:00,
2013-02-22 14:28:00,34.8,22.7,30.47,NNW,338,0.0,0.0,61,0.00,,SKC,0.00,VWS V13.01,2013-02-22 19:28:00,
2013-02-22 14:33:00,34.8,23.1,30.47,NNW,338,3.8,3.8,62,0.00,,SKC,0.00,VWS V13.01,2013-02-22 19:33:00,
2013-02-22 14:38:00,34.7,23.0,30.47,NNW,338,2.6,2.6,62,0.00,,SKC,0.00,VWS V13.01,2013-02-22 19:38:00,
2013-02-22 14:43:00,34.7,23.0,30.47,North,1,0.0,0.0,62,0.00,,SKC,0.00,VWS V13.01,2013-02-22 19:43:00,
2013-02-22 14:48:00,35.0,23.3,30.47,NNE,24,0.0,0.0,62,0.00,,SKC,0.00,VWS V13.01,2013-02-22 19:48:00,
2013-02-22 14:53:00,34.8,22.7,30.47,NNW,338,6.0,6.0,61,0.00,,SKC,0.00,VWS V13.01,2013-02-22 19:53:00,
2013-02-22 14:58:00,34.8,23.1,30.47,NNW,338,0.0,0.0,62,0.00,,SKC,0.00,VWS V13.01,2013-02-22 19:58:00,
2013-02-22 15:03:00,34.8,23.1,30.47,NW,316,1.7,1.7,62,0.00,,SKC,0.00,VWS V13.01,2013-02-22 20:03:00,
2013-02-22 15:08:00,35.2,23.9,30.47,WNW,294,4.2,4.2,63,0.00,,SKC,0.00,VWS V13.01,2013-02-22 20:08:00,
2013-02-22 15:13:00,35.2,23.9,30.47,WNW,294,0.0,0.0,63,0.00,,SKC,0.00,VWS V13.01,2013-02-22 20:13:00,
2013-02-22 15:18:00,35.0,23.7,30.47,NNW,338,1.5,1.5,63,0.00,,SKC,0.00,VWS V13.01,2013-02-22 20:18:00,
2013-02-22 15:23:00,34.8,23.5,30.46,North,1,1.3,1.3,63,0.00,,SKC,0.00,VWS V13.01,2013-02-22 20:23:00,
2013-02-22 15:28:00,34.5,23.2,30.45,North,1,2.2,2.2,63,0.00,,SKC,0.00,VWS V13.01,2013-02-22 20:28:00,
2013-02-22 15:33:00,34.5,23.2,30.45,NNW,338,1.5,1.5,63,0.00,,SKC,0.00,VWS V13.01,2013-02-22 20:33:00,
2013-02-22 15:38:00,34.7,23.4,30.45,North,1,0.0,0.0,63,0.00,,SKC,0.00,VWS V13.01,2013-02-22 20:38:00,
2013-02-22 15:43:00,34.8,23.9,30.45,NNW,338,4.0,4.0,64,0.00,,SKC,0.00,VWS V13.01,2013-02-22 20:43:00,
2013-02-22 15:48:00,34.3,23.4,30.44,NNW,338,2.0,2.0,64,0.00,,SKC,0.00,VWS V13.01,2013-02-22 20:48:00,
2013-02-22 15:53:00,34.5,23.6,30.44,North,1,0.0,0.0,64,0.00,,SKC,0.00,VWS V13.01,2013-02-22 20:53:00,
2013-02-22 15:58:00,34.5,23.6,30.44,NNW,338,0.0,0.8,64,0.00,,SKC,0.00,VWS V13.01,2013-02-22 20:58:00,
2013-02-22 16:03:00,34.3,23.4,30.44,NNW,338,0.8,0.8,64,0.00,,SKC,0.00,VWS V13.01,2013-02-22 21:03:00,
2013-02-22 16:08:00,34.5,24.0,30.44,NW,316,1.3,1.3,65,0.00,,SKC,0.00,VWS V13.01,2013-02-22 21:08:00,
2013-02-22 16:13:00,34.7,24.1,30.44,NE,46,0.0,0.0,65,0.00,,SKC,0.00,VWS V13.01,2013-02-22 21:13:00,
2013-02-22 16:18:00,34.5,24.0,30.44,North,1,0.0,0.0,65,0.00,,SKC,0.00,VWS V13.01,2013-02-22 21:18:00,
2013-02-22 16:23:00,34.5,24.0,30.44,NNW,338,0.0,0.0,65,0.00,,SKC,0.00,VWS V13.01,2013-02-22 21:23:00,
2013-02-22 16:28:00,34.3,23.8,30.44,NNW,338,0.0,0.0,65,0.00,,SKC,0.00,VWS V13.01,2013-02-22 21:28:00,
2013-02-22 16:33:00,34.3,23.8,30.44,NNW,338,0.0,0.0,65,0.00,,SKC,0.00,VWS V13.01,2013-02-22 21:33:00,
2013-02-22 16:38:00,33.9,23.4,30.44,NNW,338,0.0,0.0,65,0.00,,SKC,0.00,VWS V13.01,2013-02-22 21:38:00,
2013-02-22 16:43:00,33.4,22.9,30.43,NNW,338,0.0,0.0,65,0.00,,SKC,0.00,VWS V13.01,2013-02-22 21:43:00,
2013-02-22 16:48:00,33.0,22.5,30.43,NNW,338,0.0,0.0,65,0.00,,SKC,0.00,VWS V13.01,2013-02-22 21:48:00,
2013-02-22 16:53:00,32.7,22.2,30.42,NNW,338,0.0,0.0,65,0.00,,SKC,0.00,VWS V13.01,2013-02-22 21:53:00,
2013-02-22 16:58:00,32.3,22.2,30.43,NNW,338,0.0,0.0,66,0.00,,SKC,0.00,VWS V13.01,2013-02-22 21:58:00,
2013-02-22 17:03:00,32.1,22.0,30.43,NNW,338,0.0,0.0,66,0.00,,SKC,0.00,VWS V13.01,2013-02-22 22:03:00,
2013-02-22 17:08:00,32.1,22.4,30.43,NNW,338,0.0,0.0,67,0.00,,SKC,0.00,VWS V13.01,2013-02-22 22:08:00,
2013-02-22 17:13:00,32.1,22.4,30.42,NNW,338,0.0,0.0,67,0.00,,SKC,0.00,VWS V13.01,2013-02-22 22:13:00,
2013-02-22 17:18:00,32.1,22.4,30.43,NNW,338,0.0,0.0,67,0.00,,SKC,0.00,VWS V13.01,2013-02-22 22:18:00,
2013-02-22 17:23:00,32.0,22.3,30.43,NNW,338,0.0,0.0,67,0.00,,SKC,0.00,VWS V13.01,2013-02-22 22:23:00,
2013-02-22 17:28:00,31.8,22.1,30.43,NNW,338,0.0,0.0,67,0.00,,SKC,0.00,VWS V13.01,2013-02-22 22:28:00,
2013-02-22 17:33:00,31.8,22.1,30.43,NNW,338,0.0,0.0,67,0.00,,SKC,0.00,VWS V13.01,2013-02-22 22:33:00,
2013-02-22 17:38:00,31.8,22.5,30.43,NNW,338,0.0,0.0,68,0.00,,SKC,0.00,VWS V13.01,2013-02-22 22:38:00,
2013-02-22 17:43:00,31.8,22.5,30.44,NNW,338,0.0,0.0,68,0.00,,SKC,0.00,VWS V13.01,2013-02-22 22:43:00,
2013-02-22 17:48:00,31.6,22.3,30.43,NNW,338,0.0,0.0,68,0.00,,SKC,0.00,VWS V13.01,2013-02-22 22:48:00,
2013-02-22 17:53:00,31.6,22.6,30.43,NNW,338,0.0,0.0,69,0.00,,SKC,0.00,VWS V13.01,2013-02-22 22:53:00,
2013-02-22 17:58:00,31.2,22.2,30.43,NNW,338,0.0,0.0,69,0.00,,SKC,0.00,VWS V13.01,2013-02-22 22:58:00,
2013-02-22 18:03:00,31.2,22.2,30.43,NNW,338,0.0,0.0,69,0.00,,SKC,0.00,VWS V13.01,2013-02-22 23:03:00,
2013-02-22 18:08:00,31.2,22.2,30.43,NNW,338,0.0,0.0,69,0.00,,SKC,0.00,VWS V13.01,2013-02-22 23:08:00,
2013-02-22 18:13:00,31.1,22.1,30.44,NNW,338,0.0,0.0,69,0.00,,SKC,0.00,VWS V13.01,2013-02-22 23:13:00,
2013-02-22 18:18:00,31.1,22.1,30.43,NNW,338,0.0,0.0,69,0.00,,SKC,0.00,VWS V13.01,2013-02-22 23:18:00,
2013-02-22 18:23:00,30.9,22.3,30.43,NNW,338,0.0,0.0,70,0.00,,SKC,0.00,VWS V13.01,2013-02-22 23:23:00,
2013-02-22 18:28:00,30.9,22.3,30.43,NNW,338,0.0,0.0,70,0.00,,SKC,0.00,VWS V13.01,2013-02-22 23:28:00,
2013-02-22 18:33:00,30.7,22.1,30.43,NNW,338,0.0,0.0,70,0.00,,SKC,0.00,VWS V13.01,2013-02-22 23:33:00,
2013-02-22 18:38:00,30.7,22.1,30.43,NNW,338,0.0,0.0,70,0.00,,SKC,0.00,VWS V13.01,2013-02-22 23:38:00,
2013-02-22 18:43:00,30.7,22.1,30.43,NNW,338,0.0,0.0,70,0.00,,SKC,0.00,VWS V13.01,2013-02-22 23:43:00,
2013-02-22 18:48:00,30.5,22.2,30.43,NNW,338,0.0,0.0,71,0.00,,SKC,0.00,VWS V13.01,2013-02-22 23:48:00,
2013-02-22 18:53:00,30.5,22.2,30.43,NNW,338,0.0,0.0,71,0.00,,SKC,0.00,VWS V13.01,2013-02-22 23:53:00,
2013-02-22 18:58:00,30.5,22.2,30.43,NNW,338,0.0,0.0,71,0.00,,SKC,0.00,VWS V13.01,2013-02-22 23:58:00,
2013-02-22 19:03:00,30.5,22.2,30.42,NNW,338,0.0,0.0,71,0.00,,SKC,0.00,VWS V13.01,2013-02-23 00:03:00,
2013-02-22 19:08:00,30.3,22.0,30.42,NNW,338,0.0,0.0,71,0.00,,SKC,0.00,VWS V13.01,2013-02-23 00:08:00,
2013-02-22 19:13:00,30.5,22.2,30.41,NNW,338,0.0,0.0,71,0.00,,SKC,0.00,VWS V13.01,2013-02-23 00:13:00,
2013-02-22 19:18:00,30.5,22.2,30.42,NNW,338,0.0,0.0,71,0.00,,SKC,0.00,VWS V13.01,2013-02-23 00:18:00,
2013-02-22 19:23:00,30.5,22.2,30.41,NNW,338,0.0,0.0,71,0.00,,SKC,0.00,VWS V13.01,2013-02-23 00:23:00,
2013-02-22 19:28:00,30.3,22.0,30.42,NNW,338,0.0,0.0,71,0.00,,SKC,0.00,VWS V13.01,2013-02-23 00:28:00,
2013-02-22 19:33:00,30.3,22.0,30.42,NNW,338,0.0,0.0,71,0.00,,SKC,0.00,VWS V13.01,2013-02-23 00:33:00,
2013-02-22 19:38:00,30.3,22.0,30.42,NNW,338,0.0,0.0,71,0.00,,SKC,0.00,VWS V13.01,2013-02-23 00:38:00,
2013-02-22 19:43:00,30.3,22.0,30.42,NNW,338,0.0,0.0,71,0.00,,SKC,0.00,VWS V13.01,2013-02-23 00:43:00,
2013-02-22 19:48:00,30.3,22.0,30.41,NNW,338,0.0,0.0,71,0.00,,SKC,0.00,VWS V13.01,2013-02-23 00:48:00,
2013-02-22 19:53:00,30.3,12.5,30.41,NNW,338,0.0,0.0,47,0.00,,SKC,0.00,VWS V13.01,2013-02-23 00:53:00,
2013-02-22 19:58:00,30.2,22.3,30.41,NNW,338,0.0,0.0,72,0.00,,SKC,0.00,VWS V13.01,2013-02-23 00:58:00,
2013-02-22 20:03:00,30.2,22.3,30.41,NNW,338,0.0,0.0,72,0.00,,SKC,0.00,VWS V13.01,2013-02-23 01:03:00,
2013-02-22 20:08:00,30.2,22.3,30.41,NNW,338,0.0,0.0,72,0.00,,SKC,0.00,VWS V13.01,2013-02-23 01:08:00,
2013-02-22 20:13:00,30.2,22.3,30.41,NNW,338,0.0,0.0,72,0.00,,SKC,0.00,VWS V13.01,2013-02-23 01:13:00,
2013-02-22 20:18:00,30.2,22.6,30.40,NNW,338,0.0,0.0,73,0.00,,SKC,0.00,VWS V13.01,2013-02-23 01:18:00,
2013-02-22 20:23:00,30.2,22.6,30.40,NNW,338,0.0,0.0,73,0.00,,SKC,0.00,VWS V13.01,2013-02-23 01:23:00,
2013-02-22 20:28:00,30.2,22.6,30.40,NNW,338,0.0,0.0,73,0.00,,SKC,0.00,VWS V13.01,2013-02-23 01:28:00,
2013-02-22 20:33:00,30.2,22.6,30.40,NNW,338,0.0,0.0,73,0.00,,SKC,0.00,VWS V13.01,2013-02-23 01:33:00,
2013-02-22 20:38:00,30.2,22.6,30.40,NNW,338,0.0,0.0,73,0.00,,SKC,0.00,VWS V13.01,2013-02-23 01:38:00,
2013-02-22 20:43:00,30.2,22.6,30.40,NNW,338,0.0,0.0,73,0.00,,SKC,0.00,VWS V13.01,2013-02-23 01:43:00,
2013-02-22 20:48:00,30.2,22.6,30.40,NNW,338,0.0,0.0,73,0.00,,SKC,0.00,VWS V13.01,2013-02-23 01:48:00,
2013-02-22 20:53:00,30.3,22.7,30.40,NNW,338,0.0,0.0,73,0.00,,SKC,0.00,VWS V13.01,2013-02-23 01:53:00,
2013-02-22 20:58:00,30.3,22.7,30.40,NNW,338,0.0,0.0,73,0.00,,SKC,0.00,VWS V13.01,2013-02-23 01:58:00,
2013-02-22 21:03:00,30.2,22.6,30.40,NNW,338,0.0,0.0,73,0.00,,SKC,0.00,VWS V13.01,2013-02-23 02:03:00,
2013-02-22 21:08:00,30.2,22.6,30.40,NNW,338,0.0,0.0,73,0.00,,SKC,0.00,VWS V13.01,2013-02-23 02:08:00,
2013-02-22 21:13:00,30.2,22.6,30.40,NNW,338,0.0,0.0,73,0.00,,SKC,0.00,VWS V13.01,2013-02-23 02:13:00,
2013-02-22 21:18:00,30.2,22.9,30.40,NNW,338,0.0,0.0,74,0.00,,SKC,0.00,VWS V13.01,2013-02-23 02:18:00,
2013-02-22 21:23:00,30.2,22.9,30.40,ENE,68,0.0,0.0,74,0.00,,SKC,0.00,VWS V13.01,2013-02-23 02:23:00,
2013-02-22 21:28:00,30.0,22.7,30.40,ENE,68,0.0,0.0,74,0.00,,SKC,0.00,VWS V13.01,2013-02-23 02:28:00,
2013-02-22 21:33:00,30.2,22.9,30.40,ENE,68,0.0,0.0,74,0.00,,SKC,0.00,VWS V13.01,2013-02-23 02:33:00,
2013-02-22 21:38:00,30.0,22.7,30.40,ENE,68,0.0,0.0,74,0.00,,SKC,0.00,VWS V13.01,2013-02-23 02:38:00,
2013-02-22 21:43:00,30.0,22.7,30.39,ENE,68,0.0,0.0,74,0.00,,SKC,0.00,VWS V13.01,2013-02-23 02:43:00,
2013-02-22 21:48:00,30.0,22.7,30.39,ENE,68,0.0,0.0,74,0.00,,SKC,0.00,VWS V13.01,2013-02-23 02:48:00,
2013-02-22 21:53:00,30.0,22.7,30.39,ENE,68,0.0,0.0,74,0.00,,SKC,0.00,VWS V13.01,2013-02-23 02:53:00,
2013-02-22 21:58:00,30.0,23.0,30.39,ENE,68,0.0,0.0,75,0.00,,SKC,0.00,VWS V13.01,2013-02-23 02:58:00,
2013-02-22 22:03:00,30.0,22.7,30.39,ENE,68,0.0,0.0,74,0.00,,SKC,0.00,VWS V13.01,2013-02-23 03:03:00,
2013-02-22 22:08:00,30.0,22.7,30.39,ENE,68,0.0,0.0,74,0.00,,SKC,0.00,VWS V13.01,2013-02-23 03:08:00,
2013-02-22 22:13:00,30.0,22.7,30.39,ENE,68,0.0,0.0,74,0.00,,SKC,0.00,VWS V13.01,2013-02-23 03:13:00,
2013-02-22 22:18:00,29.8,22.5,30.39,ENE,68,0.0,0.0,74,0.00,,SKC,0.00,VWS V13.01,2013-02-23 03:18:00,
2013-02-22 22:23:00,29.4,22.1,30.39,ENE,68,0.0,0.0,74,0.00,,SKC,0.00,VWS V13.01,2013-02-23 03:23:00,
2013-02-22 22:28:00,29.1,21.9,30.39,ENE,68,0.0,0.0,74,0.00,,SKC,0.00,VWS V13.01,2013-02-23 03:28:00,
2013-02-22 22:33:00,28.9,21.7,30.39,South,181,0.0,0.0,74,0.00,,SKC,0.00,VWS V13.01,2013-02-23 03:33:00,
2013-02-22 22:38:00,28.7,21.5,30.39,SSE,158,1.7,1.7,74,0.00,,SKC,0.00,VWS V13.01,2013-02-23 03:38:00,
2013-02-22 22:43:00,28.5,21.3,30.39,South,181,0.0,0.0,74,0.00,,SKC,0.00,VWS V13.01,2013-02-23 03:43:00,
2013-02-22 22:48:00,28.5,21.3,30.39,South,181,0.0,0.0,74,0.00,,SKC,0.00,VWS V13.01,2013-02-23 03:48:00,
2013-02-22 22:53:00,28.5,21.3,30.39,South,181,0.0,0.0,74,0.00,,SKC,0.00,VWS V13.01,2013-02-23 03:53:00,
2013-02-22 22:58:00,28.7,21.5,30.38,SSE,158,0.0,0.0,74,0.00,,SKC,0.00,VWS V13.01,2013-02-23 03:58:00,
2013-02-22 23:03:00,28.9,21.7,30.39,SSE,158,0.0,0.0,74,0.00,,SKC,0.00,VWS V13.01,2013-02-23 04:03:00,
2013-02-22 23:08:00,29.1,21.9,30.38,SSE,158,0.0,0.0,74,0.00,,SKC,0.00,VWS V13.01,2013-02-23 04:08:00,
2013-02-22 23:13:00,29.1,21.9,30.38,SSE,158,0.0,0.0,74,0.00,,SKC,0.00,VWS V13.01,2013-02-23 04:13:00,
2013-02-22 23:18:00,29.3,22.1,30.38,SSE,158,0.0,0.0,74,0.00,,SKC,0.00,VWS V13.01,2013-02-23 04:18:00,
2013-02-22 23:23:00,29.4,22.1,30.38,SSE,158,0.0,0.0,74,0.00,,SKC,0.00,VWS V13.01,2013-02-23 04:23:00,
2013-02-22 23:28:00,29.8,22.5,30.38,SSE,158,0.0,0.0,74,0.00,,SKC,0.00,VWS V13.01,2013-02-23 04:28:00,
2013-02-22 23:33:00,29.8,22.5,30.38,SSE,158,0.0,0.0,74,0.00,,SKC,0.00,VWS V13.01,2013-02-23 04:33:00,
2013-02-22 23:38:00,30.0,22.7,30.37,South,181,0.0,0.0,74,0.00,,SKC,0.00,VWS V13.01,2013-02-23 04:38:00,
2013-02-22 23:43:00,30.0,22.7,30.37,South,181,0.0,0.0,74,0.00,,SKC,0.00,VWS V13.01,2013-02-23 04:43:00,
2013-02-22 23:48:00,30.0,22.7,30.37,South,181,0.0,0.0,74,0.00,,SKC,0.00,VWS V13.01,2013-02-23 04:48:00,
2013-02-22 23:53:00,30.0,22.7,30.37,South,181,0.0,0.0,74,0.00,,SKC,0.00,VWS V13.01,2013-02-23 04:53:00,
2013-02-22 23:58:00,30.2,22.9,30.37,South,181,0.0,0.0,74,0.00,,SKC,0.00,VWS V13.01,2013-02-23 04:58:00,